sensor_id;sensor_type;location;lat;lon;timestamp;P1;durP1;ratioP1;P2;durP2;ratioP2
54959;SDS011;40860;51.710;8.736;2024-03-23T00:56:15;10.60;;;4.97;;
54959;SDS011;40860;51.710;8.736;2024-03-23T01:00:17;14.32;;;4.85;;
54959;SDS011;40860;51.710;8.736;2024-03-23T01:04:20;10.38;;;4.45;;
54959;SDS011;40860;51.710;8.736;2024-03-23T01:08:22;14.20;;;4.43;;
54959;SDS011;40860;51.710;8.736;2024-03-23T01:12:25;9.68;;;4.25;;
54959;SDS011;40860;51.710;8.736;2024-03-23T01:16:27;9.35;;;4.63;;
54959;SDS011;40860;51.710;8.736;2024-03-23T01:20:29;10.73;;;4.75;;
54959;SDS011;40860;51.710;8.736;2024-03-23T01:24:31;10.80;;;4.78;;
54959;SDS011;40860;51.710;8.736;2024-03-23T01:28:34;11.07;;;5.05;;
54959;SDS011;40860;51.710;8.736;2024-03-23T01:32:36;11.05;;;3.72;;
54959;SDS011;40860;51.710;8.736;2024-03-23T01:36:38;11.93;;;3.80;;
54959;SDS011;40860;51.710;8.736;2024-03-23T01:40:40;11.30;;;4.13;;
54959;SDS011;40860;51.710;8.736;2024-03-23T01:44:43;13.50;;;3.40;;
54959;SDS011;40860;51.710;8.736;2024-03-23T01:48:45;11.68;;;3.47;;
54959;SDS011;40860;51.710;8.736;2024-03-23T01:52:48;10.18;;;3.60;;
54959;SDS011;40860;51.710;8.736;2024-03-23T01:56:50;10.75;;;3.75;;
54959;SDS011;40860;51.710;8.736;2024-03-23T02:00:53;11.27;;;3.72;;
54959;SDS011;40860;51.710;8.736;2024-03-23T02:04:55;11.50;;;4.25;;
54959;SDS011;40860;51.710;8.736;2024-03-23T02:08:57;14.95;;;4.80;;
54959;SDS011;40860;51.710;8.736;2024-03-23T02:12:59;12.73;;;4.90;;
54959;SDS011;40860;51.710;8.736;2024-03-23T02:17:02;11.68;;;4.68;;
54959;SDS011;40860;51.710;8.736;2024-03-23T02:21:05;11.82;;;5.60;;
54959;SDS011;40860;51.710;8.736;2024-03-23T02:25:08;15.20;;;5.90;;
54959;SDS011;40860;51.710;8.736;2024-03-23T02:29:12;12.95;;;5.20;;
54959;SDS011;40860;51.710;8.736;2024-03-23T02:33:14;21.15;;;6.03;;
54959;SDS011;40860;51.710;8.736;2024-03-23T02:37:16;15.85;;;5.43;;
54959;SDS011;40860;51.710;8.736;2024-03-23T02:41:19;16.58;;;4.97;;
54959;SDS011;40860;51.710;8.736;2024-03-23T02:45:23;17.33;;;5.35;;
54959;SDS011;40860;51.710;8.736;2024-03-23T02:49:26;14.52;;;4.68;;
54959;SDS011;40860;51.710;8.736;2024-03-23T02:53:28;15.70;;;5.40;;
54959;SDS011;40860;51.710;8.736;2024-03-23T02:57:32;15.18;;;4.75;;
54959;SDS011;40860;51.710;8.736;2024-03-23T03:01:34;13.85;;;4.47;;
54959;SDS011;40860;51.710;8.736;2024-03-23T03:05:36;11.80;;;4.13;;
54959;SDS011;40860;51.710;8.736;2024-03-23T03:09:38;16.90;;;4.20;;
54959;SDS011;40860;51.710;8.736;2024-03-23T03:13:41;13.45;;;3.78;;
54959;SDS011;40860;51.710;8.736;2024-03-23T03:17:44;10.98;;;3.70;;
54959;SDS011;40860;51.710;8.736;2024-03-23T03:21:46;10.48;;;3.88;;
54959;SDS011;40860;51.710;8.736;2024-03-23T03:25:48;10.43;;;3.83;;
54959;SDS011;40860;51.710;8.736;2024-03-23T03:29:51;14.52;;;4.03;;
54959;SDS011;40860;51.710;8.736;2024-03-23T03:33:53;11.48;;;4.18;;
54959;SDS011;40860;51.710;8.736;2024-03-23T03:37:55;9.38;;;3.90;;
54959;SDS011;40860;51.710;8.736;2024-03-23T03:41:57;7.93;;;3.10;;
54959;SDS011;40860;51.710;8.736;2024-03-23T03:46:02;13.00;;;2.92;;
54959;SDS011;40860;51.710;8.736;2024-03-23T03:50:04;8.27;;;3.25;;
54959;SDS011;40860;51.710;8.736;2024-03-23T03:54:07;8.07;;;2.72;;
54959;SDS011;40860;51.710;8.736;2024-03-23T03:58:09;8.27;;;3.15;;
54959;SDS011;40860;51.710;8.736;2024-03-23T04:02:12;9.52;;;3.20;;
54959;SDS011;40860;51.710;8.736;2024-03-23T04:06:18;8.65;;;3.05;;
54959;SDS011;40860;51.710;8.736;2024-03-23T04:10:20;6.80;;;2.60;;
54959;SDS011;40860;51.710;8.736;2024-03-23T04:14:23;6.57;;;2.33;;
54959;SDS011;40860;51.710;8.736;2024-03-23T04:18:26;5.63;;;2.60;;
54959;SDS011;40860;51.710;8.736;2024-03-23T04:22:28;8.38;;;2.65;;
54959;SDS011;40860;51.710;8.736;2024-03-23T04:26:29;6.95;;;2.53;;
54959;SDS011;40860;51.710;8.736;2024-03-23T04:30:31;6.53;;;2.42;;
54959;SDS011;40860;51.710;8.736;2024-03-23T04:34:35;5.18;;;2.00;;
54959;SDS011;40860;51.710;8.736;2024-03-23T04:38:37;8.07;;;2.10;;
54959;SDS011;40860;51.710;8.736;2024-03-23T04:42:39;6.57;;;2.10;;
54959;SDS011;40860;51.710;8.736;2024-03-23T04:46:40;7.72;;;2.33;;
54959;SDS011;40860;51.710;8.736;2024-03-23T04:50:44;4.05;;;1.88;;
54959;SDS011;40860;51.710;8.736;2024-03-23T04:54:47;5.25;;;1.95;;
54959;SDS011;40860;51.710;8.736;2024-03-23T04:58:49;9.73;;;3.17;;
54959;SDS011;40860;51.710;8.736;2024-03-23T05:02:51;4.95;;;2.10;;
54959;SDS011;40860;51.710;8.736;2024-03-23T05:06:54;5.55;;;2.60;;
54959;SDS011;40860;51.710;8.736;2024-03-23T05:10:55;5.80;;;2.53;;
54959;SDS011;40860;51.710;8.736;2024-03-23T05:14:57;7.32;;;2.47;;
54959;SDS011;40860;51.710;8.736;2024-03-23T05:18:59;8.32;;;2.58;;
54959;SDS011;40860;51.710;8.736;2024-03-23T05:23:03;9.60;;;2.83;;
54959;SDS011;40860;51.710;8.736;2024-03-23T05:27:05;8.77;;;3.05;;
54959;SDS011;40860;51.710;8.736;2024-03-23T05:31:07;6.88;;;2.70;;
54959;SDS011;40860;51.710;8.736;2024-03-23T05:35:11;11.55;;;3.25;;
54959;SDS011;40860;51.710;8.736;2024-03-23T05:39:14;9.98;;;2.83;;
54959;SDS011;40860;51.710;8.736;2024-03-23T05:43:16;11.07;;;5.72;;
54959;SDS011;40860;51.710;8.736;2024-03-23T05:47:18;9.02;;;3.47;;
54959;SDS011;40860;51.710;8.736;2024-03-23T05:51:19;11.20;;;5.88;;
54959;SDS011;40860;51.710;8.736;2024-03-23T05:55:22;10.00;;;5.50;;
54959;SDS011;40860;51.710;8.736;2024-03-23T05:59:24;12.35;;;4.43;;
54959;SDS011;40860;51.710;8.736;2024-03-23T06:03:27;7.63;;;3.45;;
54959;SDS011;40860;51.710;8.736;2024-03-23T06:07:30;7.78;;;2.67;;
54959;SDS011;40860;51.710;8.736;2024-03-23T06:11:33;7.90;;;2.15;;
54959;SDS011;40860;51.710;8.736;2024-03-23T06:15:35;8.63;;;2.13;;
54959;SDS011;40860;51.710;8.736;2024-03-23T06:19:38;9.40;;;2.10;;
54959;SDS011;40860;51.710;8.736;2024-03-23T06:23:40;6.53;;;2.20;;
54959;SDS011;40860;51.710;8.736;2024-03-23T06:27:43;4.53;;;2.03;;
54959;SDS011;40860;51.710;8.736;2024-03-23T06:31:53;4.30;;;2.28;;
54959;SDS011;40860;51.710;8.736;2024-03-23T06:35:55;7.63;;;1.95;;
54959;SDS011;40860;51.710;8.736;2024-03-23T06:39:58;7.43;;;2.15;;
54959;SDS011;40860;51.710;8.736;2024-03-23T06:44:01;7.78;;;2.45;;
54959;SDS011;40860;51.710;8.736;2024-03-23T06:48:03;8.23;;;2.67;;
54959;SDS011;40860;51.710;8.736;2024-03-23T06:52:08;8.13;;;2.33;;
54959;SDS011;40860;51.710;8.736;2024-03-23T06:56:10;7.13;;;2.28;;
54959;SDS011;40860;51.710;8.736;2024-03-23T07:00:13;10.68;;;4.13;;
54959;SDS011;40860;51.710;8.736;2024-03-23T07:04:16;7.63;;;2.30;;
54959;SDS011;40860;51.710;8.736;2024-03-23T07:08:18;7.93;;;3.40;;
54959;SDS011;40860;51.710;8.736;2024-03-23T07:12:22;13.90;;;4.90;;
54959;SDS011;40860;51.710;8.736;2024-03-23T07:16:27;8.93;;;4.43;;
54959;SDS011;40860;51.710;8.736;2024-03-23T07:20:29;11.32;;;4.38;;
54959;SDS011;40860;51.710;8.736;2024-03-23T07:24:31;10.63;;;3.75;;
54959;SDS011;40860;51.710;8.736;2024-03-23T07:28:33;12.80;;;5.38;;
54959;SDS011;40860;51.710;8.736;2024-03-23T07:32:37;10.93;;;4.55;;
54959;SDS011;40860;51.710;8.736;2024-03-23T07:36:39;19.05;;;5.93;;
54959;SDS011;40860;51.710;8.736;2024-03-23T07:40:41;15.77;;;7.63;;
54959;SDS011;40860;51.710;8.736;2024-03-23T07:44:43;16.85;;;6.95;;
54959;SDS011;40860;51.710;8.736;2024-03-23T07:48:48;16.75;;;7.03;;
54959;SDS011;40860;51.710;8.736;2024-03-23T07:52:50;14.23;;;7.30;;
54959;SDS011;40860;51.710;8.736;2024-03-23T07:56:52;16.75;;;8.55;;
54959;SDS011;40860;51.710;8.736;2024-03-23T08:00:54;16.00;;;8.52;;
54959;SDS011;40860;51.710;8.736;2024-03-23T08:04:57;18.92;;;9.77;;
54959;SDS011;40860;51.710;8.736;2024-03-23T08:08:59;20.90;;;12.02;;
54959;SDS011;40860;51.710;8.736;2024-03-23T08:13:01;22.42;;;11.07;;
54959;SDS011;40860;51.710;8.736;2024-03-23T08:17:07;24.52;;;11.65;;
54959;SDS011;40860;51.710;8.736;2024-03-23T08:21:10;23.13;;;11.65;;
54959;SDS011;40860;51.710;8.736;2024-03-23T08:25:12;21.38;;;11.15;;
54959;SDS011;40860;51.710;8.736;2024-03-23T08:29:14;22.08;;;11.82;;
54959;SDS011;40860;51.710;8.736;2024-03-23T08:33:16;23.50;;;13.13;;
54959;SDS011;40860;51.710;8.736;2024-03-23T08:37:19;28.15;;;13.55;;
54959;SDS011;40860;51.710;8.736;2024-03-23T08:41:21;29.48;;;11.90;;
54959;SDS011;40860;51.710;8.736;2024-03-23T08:45:24;25.48;;;11.15;;
54959;SDS011;40860;51.710;8.736;2024-03-23T08:49:26;22.77;;;12.27;;
54959;SDS011;40860;51.710;8.736;2024-03-23T08:53:29;20.52;;;12.00;;
54959;SDS011;40860;51.710;8.736;2024-03-23T08:57:31;25.77;;;13.45;;
54959;SDS011;40860;51.710;8.736;2024-03-23T09:01:34;20.70;;;13.90;;
54959;SDS011;40860;51.710;8.736;2024-03-23T09:05:38;19.50;;;13.00;;
54959;SDS011;40860;51.710;8.736;2024-03-23T09:09:43;18.40;;;10.73;;
54959;SDS011;40860;51.710;8.736;2024-03-23T09:13:45;18.30;;;11.27;;
54959;SDS011;40860;51.710;8.736;2024-03-23T09:17:47;18.85;;;10.38;;
54959;SDS011;40860;51.710;8.736;2024-03-23T09:21:49;13.23;;;9.38;;
54959;SDS011;40860;51.710;8.736;2024-03-23T09:25:52;17.33;;;9.75;;
54959;SDS011;40860;51.710;8.736;2024-03-23T09:29:54;15.07;;;9.15;;
54959;SDS011;40860;51.710;8.736;2024-03-23T09:33:56;18.65;;;9.05;;
54959;SDS011;40860;51.710;8.736;2024-03-23T09:37:58;14.77;;;7.85;;
54959;SDS011;40860;51.710;8.736;2024-03-23T09:42:02;17.70;;;7.72;;
54959;SDS011;40860;51.710;8.736;2024-03-23T09:46:05;14.98;;;7.95;;
54959;SDS011;40860;51.710;8.736;2024-03-23T09:50:06;13.30;;;7.60;;
54959;SDS011;40860;51.710;8.736;2024-03-23T09:54:09;13.55;;;6.68;;
54959;SDS011;40860;51.710;8.736;2024-03-23T09:58:14;12.75;;;8.23;;
54959;SDS011;40860;51.710;8.736;2024-03-23T10:02:17;15.38;;;7.63;;
54959;SDS011;40860;51.710;8.736;2024-03-23T10:06:21;10.15;;;6.38;;
54959;SDS011;40860;51.710;8.736;2024-03-23T10:10:25;13.75;;;6.45;;
54959;SDS011;40860;51.710;8.736;2024-03-23T10:14:29;13.73;;;6.72;;
54959;SDS011;40860;51.710;8.736;2024-03-23T10:18:32;13.77;;;6.88;;
54959;SDS011;40860;51.710;8.736;2024-03-23T10:22:39;13.70;;;6.68;;
54959;SDS011;40860;51.710;8.736;2024-03-23T10:26:43;8.15;;;4.32;;
54959;SDS011;40860;51.710;8.736;2024-03-23T10:30:58;8.23;;;3.80;;
54959;SDS011;40860;51.710;8.736;2024-03-23T10:35:16;10.90;;;4.68;;
54959;SDS011;40860;51.710;8.736;2024-03-23T10:39:20;10.75;;;4.90;;
54959;SDS011;40860;51.710;8.736;2024-03-23T10:43:24;9.27;;;4.75;;
54959;SDS011;40860;51.710;8.736;2024-03-23T10:47:47;11.63;;;5.40;;
54959;SDS011;40860;51.710;8.736;2024-03-23T10:51:59;7.80;;;3.50;;
54959;SDS011;40860;51.710;8.736;2024-03-23T10:56:17;3.97;;;1.30;;
54959;SDS011;40860;51.710;8.736;2024-03-23T11:15:49;3.38;;;0.80;;
54959;SDS011;40860;51.710;8.736;2024-03-23T11:19:55;2.75;;;0.98;;
54959;SDS011;40860;51.710;8.736;2024-03-23T11:24:12;2.58;;;1.77;;
54959;SDS011;40860;51.710;8.736;2024-03-23T11:28:15;2.92;;;1.92;;
54959;SDS011;40860;51.710;8.736;2024-03-23T11:32:19;2.80;;;1.48;;
54959;SDS011;40860;51.710;8.736;2024-03-23T11:36:22;2.83;;;1.80;;
54959;SDS011;40860;51.710;8.736;2024-03-23T11:40:26;3.58;;;2.75;;
54959;SDS011;40860;51.710;8.736;2024-03-23T11:44:30;3.50;;;2.92;;
54959;SDS011;40860;51.710;8.736;2024-03-23T11:48:34;3.42;;;3.05;;
54959;SDS011;40860;51.710;8.736;2024-03-23T11:52:39;8.60;;;4.38;;
54959;SDS011;40860;51.710;8.736;2024-03-23T11:56:53;6.97;;;4.85;;
54959;SDS011;40860;51.710;8.736;2024-03-23T12:00:57;6.15;;;3.67;;
54959;SDS011;40860;51.710;8.736;2024-03-23T12:05:14;5.45;;;4.38;;
54959;SDS011;40860;51.710;8.736;2024-03-23T12:09:17;10.88;;;4.80;;
54959;SDS011;40860;51.710;8.736;2024-03-23T12:13:20;7.70;;;4.78;;
54959;SDS011;40860;51.710;8.736;2024-03-23T12:17:23;9.05;;;5.07;;
54959;SDS011;40860;51.710;8.736;2024-03-23T12:21:31;8.48;;;4.50;;
54959;SDS011;40860;51.710;8.736;2024-03-23T12:25:37;10.93;;;6.95;;
54959;SDS011;40860;51.710;8.736;2024-03-23T12:29:42;9.93;;;6.65;;
54959;SDS011;40860;51.710;8.736;2024-03-23T12:33:47;10.02;;;6.63;;
54959;SDS011;40860;51.710;8.736;2024-03-23T12:37:56;8.02;;;5.80;;
54959;SDS011;40860;51.710;8.736;2024-03-23T12:41:58;8.25;;;5.10;;
54959;SDS011;40860;51.710;8.736;2024-03-23T12:46:00;8.40;;;5.35;;
54959;SDS011;40860;51.710;8.736;2024-03-23T12:50:02;5.03;;;3.40;;
54959;SDS011;40860;51.710;8.736;2024-03-23T12:54:07;4.65;;;2.40;;
54959;SDS011;40860;51.710;8.736;2024-03-23T12:58:09;2.80;;;1.88;;
54959;SDS011;40860;51.710;8.736;2024-03-23T13:02:14;2.70;;;1.38;;
54959;SDS011;40860;51.710;8.736;2024-03-23T13:06:18;4.40;;;1.77;;
54959;SDS011;40860;51.710;8.736;2024-03-23T13:10:23;6.25;;;2.10;;
54959;SDS011;40860;51.710;8.736;2024-03-23T13:14:25;2.80;;;1.77;;
54959;SDS011;40860;51.710;8.736;2024-03-23T13:18:28;4.03;;;2.20;;
54959;SDS011;40860;51.710;8.736;2024-03-23T13:22:34;4.70;;;1.95;;
54959;SDS011;40860;51.710;8.736;2024-03-23T13:26:38;1.90;;;1.65;;
54959;SDS011;40860;51.710;8.736;2024-03-23T13:30:49;2.10;;;1.40;;
54959;SDS011;40860;51.710;8.736;2024-03-23T13:34:51;2.45;;;1.60;;
54959;SDS011;40860;51.710;8.736;2024-03-23T13:38:54;2.17;;;1.60;;
54959;SDS011;40860;51.710;8.736;2024-03-23T13:43:00;3.08;;;1.63;;
54959;SDS011;40860;51.710;8.736;2024-03-23T13:47:03;3.35;;;1.88;;
54959;SDS011;40860;51.710;8.736;2024-03-23T13:51:05;4.07;;;1.83;;
54959;SDS011;40860;51.710;8.736;2024-03-23T13:55:08;4.22;;;2.40;;
54959;SDS011;40860;51.710;8.736;2024-03-23T13:59:14;2.92;;;2.38;;
54959;SDS011;40860;51.710;8.736;2024-03-23T14:03:16;3.45;;;2.42;;
54959;SDS011;40860;51.710;8.736;2024-03-23T14:07:18;7.15;;;2.88;;
54959;SDS011;40860;51.710;8.736;2024-03-23T14:11:20;3.85;;;2.70;;
54959;SDS011;40860;51.710;8.736;2024-03-23T14:15:25;3.85;;;2.97;;
54959;SDS011;40860;51.710;8.736;2024-03-23T14:19:28;6.03;;;3.40;;
54959;SDS011;40860;51.710;8.736;2024-03-23T14:23:33;4.28;;;2.40;;
54959;SDS011;40860;51.710;8.736;2024-03-23T14:27:35;4.70;;;2.47;;
54959;SDS011;40860;51.710;8.736;2024-03-23T14:31:39;4.10;;;2.35;;
54959;SDS011;40860;51.710;8.736;2024-03-23T14:35:41;2.35;;;1.42;;
54959;SDS011;40860;51.710;8.736;2024-03-23T14:39:44;1.90;;;1.25;;
54959;SDS011;40860;51.710;8.736;2024-03-23T14:43:47;3.35;;;1.50;;
54959;SDS011;40860;51.710;8.736;2024-03-23T14:47:52;3.42;;;1.70;;
54959;SDS011;40860;51.710;8.736;2024-03-23T14:51:54;2.42;;;1.92;;
54959;SDS011;40860;51.710;8.736;2024-03-23T14:55:58;2.88;;;1.80;;
54959;SDS011;40860;51.710;8.736;2024-03-23T15:00:04;6.03;;;2.58;;
54959;SDS011;40860;51.710;8.736;2024-03-23T15:04:10;5.30;;;2.97;;
54959;SDS011;40860;51.710;8.736;2024-03-23T15:08:12;4.03;;;2.83;;
54959;SDS011;40860;51.710;8.736;2024-03-23T15:12:15;3.65;;;2.78;;
54959;SDS011;40860;51.710;8.736;2024-03-23T15:16:18;2.40;;;1.70;;
54959;SDS011;40860;51.710;8.736;2024-03-23T15:20:21;1.63;;;1.30;;
54959;SDS011;40860;51.710;8.736;2024-03-23T15:24:24;2.55;;;1.92;;
54959;SDS011;40860;51.710;8.736;2024-03-23T15:28:26;2.42;;;1.80;;
54959;SDS011;40860;51.710;8.736;2024-03-23T15:32:38;3.20;;;2.13;;
54959;SDS011;40860;51.710;8.736;2024-03-23T15:36:44;3.72;;;1.80;;
54959;SDS011;40860;51.710;8.736;2024-03-23T15:40:50;3.38;;;2.05;;
54959;SDS011;40860;51.710;8.736;2024-03-23T15:44:56;3.65;;;2.00;;
54959;SDS011;40860;51.710;8.736;2024-03-23T15:48:59;2.65;;;1.80;;
54959;SDS011;40860;51.710;8.736;2024-03-23T15:53:03;3.35;;;2.00;;
54959;SDS011;40860;51.710;8.736;2024-03-23T15:57:05;5.50;;;2.10;;
54959;SDS011;40860;51.710;8.736;2024-03-23T16:01:08;3.15;;;1.77;;
54959;SDS011;40860;51.710;8.736;2024-03-23T16:05:11;1.95;;;1.60;;
54959;SDS011;40860;51.710;8.736;2024-03-23T16:09:15;3.13;;;1.55;;
54959;SDS011;40860;51.710;8.736;2024-03-23T16:13:19;2.72;;;1.35;;
54959;SDS011;40860;51.710;8.736;2024-03-23T16:17:22;2.17;;;1.60;;
54959;SDS011;40860;51.710;8.736;2024-03-23T16:21:25;5.10;;;1.83;;
54959;SDS011;40860;51.710;8.736;2024-03-23T16:25:29;2.03;;;1.35;;
54959;SDS011;40860;51.710;8.736;2024-03-23T16:29:31;1.83;;;1.17;;
54959;SDS011;40860;51.710;8.736;2024-03-23T16:33:33;3.55;;;1.50;;
54959;SDS011;40860;51.710;8.736;2024-03-23T16:37:36;4.93;;;1.60;;
54959;SDS011;40860;51.710;8.736;2024-03-23T16:41:40;4.15;;;1.60;;
54959;SDS011;40860;51.710;8.736;2024-03-23T16:45:42;3.17;;;1.73;;
54959;SDS011;40860;51.710;8.736;2024-03-23T16:49:44;3.95;;;2.10;;
54959;SDS011;40860;51.710;8.736;2024-03-23T16:53:47;3.63;;;1.90;;
54959;SDS011;40860;51.710;8.736;2024-03-23T16:57:50;4.05;;;1.92;;
54959;SDS011;40860;51.710;8.736;2024-03-23T17:01:52;5.30;;;1.73;;
54959;SDS011;40860;51.710;8.736;2024-03-23T17:05:54;5.28;;;2.10;;
54959;SDS011;40860;51.710;8.736;2024-03-23T17:09:56;4.85;;;2.58;;
54959;SDS011;40860;51.710;8.736;2024-03-23T17:14:00;3.42;;;1.80;;
54959;SDS011;40860;51.710;8.736;2024-03-23T17:18:02;6.97;;;1.52;;
54959;SDS011;40860;51.710;8.736;2024-03-23T17:22:05;5.43;;;1.73;;
54959;SDS011;40860;51.710;8.736;2024-03-23T17:26:06;4.32;;;1.50;;
54959;SDS011;40860;51.710;8.736;2024-03-23T17:30:12;3.75;;;1.48;;
54959;SDS011;40860;51.710;8.736;2024-03-23T17:34:16;4.85;;;1.80;;
54959;SDS011;40860;51.710;8.736;2024-03-23T17:38:18;3.33;;;1.20;;
54959;SDS011;40860;51.710;8.736;2024-03-23T17:42:21;2.80;;;1.75;;
54959;SDS011;40860;51.710;8.736;2024-03-23T17:46:24;3.67;;;1.88;;
54959;SDS011;40860;51.710;8.736;2024-03-23T17:50:27;5.35;;;1.70;;
54959;SDS011;40860;51.710;8.736;2024-03-23T17:54:29;4.05;;;1.98;;
54959;SDS011;40860;51.710;8.736;2024-03-23T17:58:31;3.50;;;1.67;;
54959;SDS011;40860;51.710;8.736;2024-03-23T18:02:35;4.35;;;2.20;;
54959;SDS011;40860;51.710;8.736;2024-03-23T18:06:38;3.55;;;1.90;;
54959;SDS011;40860;51.710;8.736;2024-03-23T18:10:40;8.95;;;2.60;;
54959;SDS011;40860;51.710;8.736;2024-03-23T18:14:42;6.35;;;2.30;;
54959;SDS011;40860;51.710;8.736;2024-03-23T18:18:46;4.85;;;1.90;;
54959;SDS011;40860;51.710;8.736;2024-03-23T18:22:48;1.98;;;1.80;;
54959;SDS011;40860;51.710;8.736;2024-03-23T18:26:50;4.82;;;2.22;;
54959;SDS011;40860;51.710;8.736;2024-03-23T18:30:55;3.83;;;2.63;;
54959;SDS011;40860;51.710;8.736;2024-03-23T18:34:59;4.43;;;2.72;;
54959;SDS011;40860;51.710;8.736;2024-03-23T18:39:01;3.45;;;2.50;;
54959;SDS011;40860;51.710;8.736;2024-03-23T18:43:03;6.18;;;2.50;;
54959;SDS011;40860;51.710;8.736;2024-03-23T18:47:06;7.75;;;2.35;;
54959;SDS011;40860;51.710;8.736;2024-03-23T18:51:10;3.83;;;2.47;;
54959;SDS011;40860;51.710;8.736;2024-03-23T18:55:12;2.83;;;1.80;;
54959;SDS011;40860;51.710;8.736;2024-03-23T18:59:14;5.40;;;1.95;;
54959;SDS011;40860;51.710;8.736;2024-03-23T19:03:16;2.67;;;1.33;;
54959;SDS011;40860;51.710;8.736;2024-03-23T19:07:19;3.55;;;1.48;;
54959;SDS011;40860;51.710;8.736;2024-03-23T19:11:21;1.95;;;1.10;;
54959;SDS011;40860;51.710;8.736;2024-03-23T19:15:23;2.25;;;2.05;;
54959;SDS011;40860;51.710;8.736;2024-03-23T19:19:27;2.50;;;1.88;;
54959;SDS011;40860;51.710;8.736;2024-03-23T19:23:30;2.97;;;1.42;;
54959;SDS011;40860;51.710;8.736;2024-03-23T19:27:32;4.35;;;2.92;;
54959;SDS011;40860;51.710;8.736;2024-03-23T19:31:36;4.43;;;2.05;;
54959;SDS011;40860;51.710;8.736;2024-03-23T19:35:38;3.17;;;1.90;;
54959;SDS011;40860;51.710;8.736;2024-03-23T19:39:42;5.68;;;2.85;;
54959;SDS011;40860;51.710;8.736;2024-03-23T19:43:44;2.92;;;2.30;;
54959;SDS011;40860;51.710;8.736;2024-03-23T19:47:46;3.08;;;2.33;;
54959;SDS011;40860;51.710;8.736;2024-03-23T19:51:48;3.30;;;1.98;;
54959;SDS011;40860;51.710;8.736;2024-03-23T19:55:55;2.20;;;2.10;;
54959;SDS011;40860;51.710;8.736;2024-03-23T19:59:57;3.85;;;2.65;;
54959;SDS011;40860;51.710;8.736;2024-03-23T20:04:00;3.25;;;2.47;;
54959;SDS011;40860;51.710;8.736;2024-03-23T20:08:03;3.20;;;2.58;;
54959;SDS011;40860;51.710;8.736;2024-03-23T20:12:10;2.75;;;2.45;;
54959;SDS011;40860;51.710;8.736;2024-03-23T20:16:12;4.32;;;2.47;;
54959;SDS011;40860;51.710;8.736;2024-03-23T20:20:14;2.88;;;2.58;;
54959;SDS011;40860;51.710;8.736;2024-03-23T20:24:18;3.88;;;2.47;;
54959;SDS011;40860;51.710;8.736;2024-03-23T20:28:21;3.30;;;2.28;;
54959;SDS011;40860;51.710;8.736;2024-03-23T20:32:24;3.83;;;2.10;;
54959;SDS011;40860;51.710;8.736;2024-03-23T20:36:26;4.22;;;2.80;;
54959;SDS011;40860;51.710;8.736;2024-03-23T20:40:28;4.10;;;2.40;;
54959;SDS011;40860;51.710;8.736;2024-03-23T20:44:32;3.78;;;2.58;;
54959;SDS011;40860;51.710;8.736;2024-03-23T20:48:34;4.95;;;2.25;;
54959;SDS011;40860;51.710;8.736;2024-03-23T20:52:40;5.03;;;2.50;;
54959;SDS011;40860;51.710;8.736;2024-03-23T20:56:42;4.50;;;2.83;;
54959;SDS011;40860;51.710;8.736;2024-03-23T21:00:44;6.40;;;3.05;;
54959;SDS011;40860;51.710;8.736;2024-03-23T21:04:48;4.22;;;2.80;;
54959;SDS011;40860;51.710;8.736;2024-03-23T21:08:50;4.90;;;3.88;;
54959;SDS011;40860;51.710;8.736;2024-03-23T21:12:52;4.38;;;3.97;;
54959;SDS011;40860;51.710;8.736;2024-03-23T21:16:55;8.02;;;6.20;;
54959;SDS011;40860;51.710;8.736;2024-03-23T21:20:57;11.27;;;8.98;;
54959;SDS011;40860;51.710;8.736;2024-03-23T21:25:00;12.90;;;9.32;;
54959;SDS011;40860;51.710;8.736;2024-03-23T21:29:03;9.10;;;7.45;;
54959;SDS011;40860;51.710;8.736;2024-03-23T21:33:06;9.68;;;6.47;;
54959;SDS011;40860;51.710;8.736;2024-03-23T21:37:10;6.25;;;5.32;;
54959;SDS011;40860;51.710;8.736;2024-03-23T21:41:12;4.35;;;3.95;;
54959;SDS011;40860;51.710;8.736;2024-03-23T21:45:14;4.57;;;3.88;;
54959;SDS011;40860;51.710;8.736;2024-03-23T21:49:17;4.60;;;3.95;;
54959;SDS011;40860;51.710;8.736;2024-03-23T21:53:19;5.63;;;4.03;;
54959;SDS011;40860;51.710;8.736;2024-03-23T21:57:21;5.97;;;3.95;;
54959;SDS011;40860;51.710;8.736;2024-03-23T22:01:24;7.60;;;4.25;;
54959;SDS011;40860;51.710;8.736;2024-03-23T22:05:28;5.07;;;4.00;;
54959;SDS011;40860;51.710;8.736;2024-03-23T22:09:30;6.75;;;4.22;;
54959;SDS011;40860;51.710;8.736;2024-03-23T22:13:32;5.53;;;4.78;;
54959;SDS011;40860;51.710;8.736;2024-03-23T22:17:34;6.82;;;4.72;;
54959;SDS011;40860;51.710;8.736;2024-03-23T22:21:37;6.78;;;5.40;;
54959;SDS011;40860;51.710;8.736;2024-03-23T22:25:39;7.78;;;5.65;;
54959;SDS011;40860;51.710;8.736;2024-03-23T22:29:49;6.65;;;4.95;;
54959;SDS011;40860;51.710;8.736;2024-03-23T22:33:51;7.80;;;5.68;;
54959;SDS011;40860;51.710;8.736;2024-03-23T22:37:55;6.38;;;5.55;;
54959;SDS011;40860;51.710;8.736;2024-03-23T22:41:57;5.90;;;5.30;;
54959;SDS011;40860;51.710;8.736;2024-03-23T22:45:59;7.22;;;5.65;;
54959;SDS011;40860;51.710;8.736;2024-03-23T22:50:02;7.38;;;5.85;;
54959;SDS011;40860;51.710;8.736;2024-03-23T22:54:07;6.20;;;5.40;;
54959;SDS011;40860;51.710;8.736;2024-03-23T22:58:08;6.00;;;5.40;;
54959;SDS011;40860;51.710;8.736;2024-03-23T23:02:10;5.95;;;5.43;;
54959;SDS011;40860;51.710;8.736;2024-03-23T23:06:12;6.13;;;5.00;;
54959;SDS011;40860;51.710;8.736;2024-03-23T23:10:14;6.10;;;5.25;;
54959;SDS011;40860;51.710;8.736;2024-03-23T23:14:16;8.15;;;5.85;;
54959;SDS011;40860;51.710;8.736;2024-03-23T23:18:18;10.50;;;6.10;;
54959;SDS011;40860;51.710;8.736;2024-03-23T23:22:20;7.32;;;5.38;;
54959;SDS011;40860;51.710;8.736;2024-03-23T23:26:23;10.55;;;6.00;;
54959;SDS011;40860;51.710;8.736;2024-03-23T23:30:25;8.65;;;5.68;;
54959;SDS011;40860;51.710;8.736;2024-03-23T23:34:27;8.13;;;6.20;;
54959;SDS011;40860;51.710;8.736;2024-03-23T23:38:29;6.85;;;5.80;;
54959;SDS011;40860;51.710;8.736;2024-03-23T23:42:32;6.30;;;5.47;;
54959;SDS011;40860;51.710;8.736;2024-03-23T23:46:34;6.57;;;5.85;;
54959;SDS011;40860;51.710;8.736;2024-03-23T23:50:36;6.75;;;5.65;;
54959;SDS011;40860;51.710;8.736;2024-03-23T23:54:38;7.50;;;6.10;;
54959;SDS011;40860;51.710;8.736;2024-03-23T23:58:40;6.25;;;5.65;;
